sensor_id;sensor_type;location;lat;lon;timestamp;temperature;humidity
52451;DHT22;38366;53.176;6.540;2022-11-11T00:01:12;12.30;99.90
52451;DHT22;38366;53.176;6.540;2022-11-11T00:03:38;12.30;99.90
52451;DHT22;38366;53.176;6.540;2022-11-11T00:06:07;12.20;99.90
52451;DHT22;38366;53.176;6.540;2022-11-11T00:08:33;12.20;99.90
52451;DHT22;38366;53.176;6.540;2022-11-11T00:11:04;12.10;99.90
52451;DHT22;38366;53.176;6.540;2022-11-11T00:13:30;12.10;99.90
52451;DHT22;38366;53.176;6.540;2022-11-11T00:16:02;12.10;99.90
52451;DHT22;38366;53.176;6.540;2022-11-11T00:18:27;12.20;99.90
52451;DHT22;38366;53.176;6.540;2022-11-11T00:21:14;12.70;99.90
52451;DHT22;38366;53.176;6.540;2022-11-11T00:23:59;12.20;99.90
52451;DHT22;38366;53.176;6.540;2022-11-11T00:26:43;12.30;99.90
52451;DHT22;38366;53.176;6.540;2022-11-11T00:29:10;12.20;99.90
52451;DHT22;38366;53.176;6.540;2022-11-11T00:31:35;12.20;99.90
52451;DHT22;38366;53.176;6.540;2022-11-11T00:34:21;12.20;99.90
52451;DHT22;38366;53.176;6.540;2022-11-11T00:36:47;12.10;99.90
52451;DHT22;38366;53.176;6.540;2022-11-11T00:39:12;12.10;99.90
52451;DHT22;38366;53.176;6.540;2022-11-11T00:41:38;12.20;99.90
52451;DHT22;38366;53.176;6.540;2022-11-11T00:44:04;12.10;99.90
52451;DHT22;38366;53.176;6.540;2022-11-11T00:46:29;12.10;99.90
52451;DHT22;38366;53.176;6.540;2022-11-11T00:49:13;12.00;99.90
52451;DHT22;38366;53.176;6.540;2022-11-11T00:51:57;12.20;99.90
52451;DHT22;38366;53.176;6.540;2022-11-11T00:54:23;12.20;99.90
52451;DHT22;38366;53.176;6.540;2022-11-11T00:56:49;12.10;99.90
52451;DHT22;38366;53.176;6.540;2022-11-11T00:59:14;12.10;99.90
52451;DHT22;38366;53.176;6.540;2022-11-11T01:01:40;12.10;99.90
52451;DHT22;38366;53.176;6.540;2022-11-11T01:04:06;12.10;99.90
52451;DHT22;38366;53.176;6.540;2022-11-11T01:06:32;12.30;99.90
52451;DHT22;38366;53.176;6.540;2022-11-11T01:08:57;11.80;99.90
52451;DHT22;38366;53.176;6.540;2022-11-11T01:11:23;12.20;99.90
52451;DHT22;38366;53.176;6.540;2022-11-11T01:13:50;12.20;99.90
52451;DHT22;38366;53.176;6.540;2022-11-11T01:16:22;12.30;99.90
52451;DHT22;38366;53.176;6.540;2022-11-11T01:18:49;12.20;99.90
52451;DHT22;38366;53.176;6.540;2022-11-11T01:21:22;12.20;99.90
52451;DHT22;38366;53.176;6.540;2022-11-11T01:23:49;12.20;99.90
52451;DHT22;38366;53.176;6.540;2022-11-11T01:26:17;12.20;99.90
52451;DHT22;38366;53.176;6.540;2022-11-11T01:28:44;12.20;99.90
52451;DHT22;38366;53.176;6.540;2022-11-11T01:31:12;12.20;99.90
52451;DHT22;38366;53.176;6.540;2022-11-11T01:33:38;12.20;99.90
52451;DHT22;38366;53.176;6.540;2022-11-11T01:36:10;12.20;99.90
52451;DHT22;38366;53.176;6.540;2022-11-11T01:38:37;12.20;99.90
52451;DHT22;38366;53.176;6.540;2022-11-11T01:41:05;12.10;99.90
52451;DHT22;38366;53.176;6.540;2022-11-11T01:43:52;12.20;99.90
52451;DHT22;38366;53.176;6.540;2022-11-11T01:46:39;12.30;99.90
52451;DHT22;38366;53.176;6.540;2022-11-11T01:52:13;12.10;99.90
52451;DHT22;38366;53.176;6.540;2022-11-11T01:57:35;12.20;99.90
52451;DHT22;38366;53.176;6.540;2022-11-11T02:00:08;12.10;99.90
52451;DHT22;38366;53.176;6.540;2022-11-11T02:02:47;12.10;99.90
52451;DHT22;38366;53.176;6.540;2022-11-11T02:05:17;12.00;99.90
52451;DHT22;38366;53.176;6.540;2022-11-11T02:08:04;12.20;99.90
52451;DHT22;38366;53.176;6.540;2022-11-11T02:10:33;12.00;99.90
52451;DHT22;38366;53.176;6.540;2022-11-11T02:12:59;12.00;99.90
52451;DHT22;38366;53.176;6.540;2022-11-11T02:15:44;12.00;99.90
52451;DHT22;38366;53.176;6.540;2022-11-11T02:18:10;12.00;99.90
52451;DHT22;38366;53.176;6.540;2022-11-11T02:20:38;12.00;99.90
52451;DHT22;38366;53.176;6.540;2022-11-11T02:25:42;11.90;99.90
52451;DHT22;38366;53.176;6.540;2022-11-11T02:28:10;11.90;99.90
52451;DHT22;38366;53.176;6.540;2022-11-11T02:30:36;11.90;99.90
52451;DHT22;38366;53.176;6.540;2022-11-11T02:33:02;11.90;99.90
52451;DHT22;38366;53.176;6.540;2022-11-11T02:35:32;11.90;99.90
52451;DHT22;38366;53.176;6.540;2022-11-11T02:37:59;11.90;99.90
52451;DHT22;38366;53.176;6.540;2022-11-11T02:40:38;12.00;99.90
52451;DHT22;38366;53.176;6.540;2022-11-11T02:43:24;12.00;99.90
52451;DHT22;38366;53.176;6.540;2022-11-11T02:45:50;12.00;99.90
52451;DHT22;38366;53.176;6.540;2022-11-11T02:48:16;12.00;99.90
52451;DHT22;38366;53.176;6.540;2022-11-11T02:50:41;12.00;99.90
52451;DHT22;38366;53.176;6.540;2022-11-11T02:53:07;12.00;99.90
52451;DHT22;38366;53.176;6.540;2022-11-11T02:55:33;12.00;99.90
52451;DHT22;38366;53.176;6.540;2022-11-11T02:57:59;12.00;99.90
52451;DHT22;38366;53.176;6.540;2022-11-11T03:00:25;11.90;99.90
52451;DHT22;38366;53.176;6.540;2022-11-11T03:02:51;11.90;99.90
52451;DHT22;38366;53.176;6.540;2022-11-11T03:05:16;11.80;99.90
52451;DHT22;38366;53.176;6.540;2022-11-11T03:07:43;11.80;99.90
52451;DHT22;38366;53.176;6.540;2022-11-11T03:10:08;11.80;99.90
52451;DHT22;38366;53.176;6.540;2022-11-11T03:12:35;11.80;99.90
52451;DHT22;38366;53.176;6.540;2022-11-11T03:15:01;11.80;99.90
52451;DHT22;38366;53.176;6.540;2022-11-11T03:17:27;11.70;99.90
52451;DHT22;38366;53.176;6.540;2022-11-11T03:20:08;11.70;99.90
52451;DHT22;38366;53.176;6.540;2022-11-11T03:23:12;11.60;99.90
52451;DHT22;38366;53.176;6.540;2022-11-11T03:25:43;11.60;99.90
52451;DHT22;38366;53.176;6.540;2022-11-11T03:28:19;11.50;99.90
52451;DHT22;38366;53.176;6.540;2022-11-11T03:30:47;11.50;99.90
52451;DHT22;38366;53.176;6.540;2022-11-11T03:33:14;11.50;99.90
52451;DHT22;38366;53.176;6.540;2022-11-11T03:35:40;11.50;99.90
52451;DHT22;38366;53.176;6.540;2022-11-11T03:38:09;11.40;99.90
52451;DHT22;38366;53.176;6.540;2022-11-11T03:40:51;11.50;99.90
52451;DHT22;38366;53.176;6.540;2022-11-11T03:43:19;11.60;99.90
52451;DHT22;38366;53.176;6.540;2022-11-11T03:45:45;11.50;99.90
52451;DHT22;38366;53.176;6.540;2022-11-11T03:48:11;11.60;99.90
52451;DHT22;38366;53.176;6.540;2022-11-11T03:50:37;11.60;99.90
52451;DHT22;38366;53.176;6.540;2022-11-11T03:53:03;11.60;99.90
52451;DHT22;38366;53.176;6.540;2022-11-11T03:55:29;11.60;99.90
52451;DHT22;38366;53.176;6.540;2022-11-11T03:57:55;11.50;99.90
52451;DHT22;38366;53.176;6.540;2022-11-11T04:00:23;11.50;99.90
52451;DHT22;38366;53.176;6.540;2022-11-11T04:02:49;11.50;99.90
52451;DHT22;38366;53.176;6.540;2022-11-11T04:05:44;11.50;99.90
52451;DHT22;38366;53.176;6.540;2022-11-11T04:08:28;11.50;99.90
52451;DHT22;38366;53.176;6.540;2022-11-11T04:11:21;11.60;99.90
52451;DHT22;38366;53.176;6.540;2022-11-11T04:13:49;11.60;99.90
52451;DHT22;38366;53.176;6.540;2022-11-11T04:16:33;11.60;99.90
52451;DHT22;38366;53.176;6.540;2022-11-11T04:18:59;11.50;99.90
52451;DHT22;38366;53.176;6.540;2022-11-11T04:21:43;11.50;99.90
52451;DHT22;38366;53.176;6.540;2022-11-11T04:24:19;11.60;99.90
52451;DHT22;38366;53.176;6.540;2022-11-11T04:27:06;11.60;99.90
52451;DHT22;38366;53.176;6.540;2022-11-11T04:29:33;11.60;99.90
52451;DHT22;38366;53.176;6.540;2022-11-11T04:31:59;11.60;99.90
52451;DHT22;38366;53.176;6.540;2022-11-11T04:34:48;11.50;99.90
52451;DHT22;38366;53.176;6.540;2022-11-11T04:37:15;11.60;99.90
52451;DHT22;38366;53.176;6.540;2022-11-11T04:39:41;11.60;99.90
52451;DHT22;38366;53.176;6.540;2022-11-11T04:42:26;11.70;99.90
52451;DHT22;38366;53.176;6.540;2022-11-11T04:44:52;11.60;99.90
52451;DHT22;38366;53.176;6.540;2022-11-11T04:47:36;11.60;99.90
52451;DHT22;38366;53.176;6.540;2022-11-11T04:50:03;11.60;99.90
52451;DHT22;38366;53.176;6.540;2022-11-11T04:52:29;11.50;99.90
52451;DHT22;38366;53.176;6.540;2022-11-11T04:54:56;11.50;99.90
52451;DHT22;38366;53.176;6.540;2022-11-11T04:57:42;11.50;99.90
52451;DHT22;38366;53.176;6.540;2022-11-11T05:00:16;11.50;99.90
52451;DHT22;38366;53.176;6.540;2022-11-11T05:02:42;11.40;99.90
52451;DHT22;38366;53.176;6.540;2022-11-11T05:05:27;11.50;99.90
52451;DHT22;38366;53.176;6.540;2022-11-11T05:07:53;11.50;99.90
52451;DHT22;38366;53.176;6.540;2022-11-11T05:10:37;11.40;99.90
52451;DHT22;38366;53.176;6.540;2022-11-11T05:13:04;11.40;99.90
52451;DHT22;38366;53.176;6.540;2022-11-11T05:15:48;11.50;99.90
52451;DHT22;38366;53.176;6.540;2022-11-11T05:18:33;11.40;99.90
52451;DHT22;38366;53.176;6.540;2022-11-11T05:21:20;11.50;99.90
52451;DHT22;38366;53.176;6.540;2022-11-11T05:23:50;11.40;99.90
52451;DHT22;38366;53.176;6.540;2022-11-11T05:26:35;11.40;99.90
52451;DHT22;38366;53.176;6.540;2022-11-11T05:29:01;11.40;99.90
52451;DHT22;38366;53.176;6.540;2022-11-11T05:31:28;11.30;99.90
52451;DHT22;38366;53.176;6.540;2022-11-11T05:33:54;11.30;99.90
52451;DHT22;38366;53.176;6.540;2022-11-11T05:36:20;11.30;99.90
52451;DHT22;38366;53.176;6.540;2022-11-11T05:38:46;11.20;99.90
52451;DHT22;38366;53.176;6.540;2022-11-11T05:41:11;11.30;99.90
52451;DHT22;38366;53.176;6.540;2022-11-11T05:43:37;11.20;99.90
52451;DHT22;38366;53.176;6.540;2022-11-11T05:46:03;11.30;99.90
52451;DHT22;38366;53.176;6.540;2022-11-11T05:48:30;11.10;99.90
52451;DHT22;38366;53.176;6.540;2022-11-11T05:50:59;11.20;99.90
52451;DHT22;38366;53.176;6.540;2022-11-11T05:53:25;11.10;99.90
52451;DHT22;38366;53.176;6.540;2022-11-11T05:55:52;11.10;99.90
52451;DHT22;38366;53.176;6.540;2022-11-11T05:58:19;11.00;99.90
52451;DHT22;38366;53.176;6.540;2022-11-11T06:00:45;11.00;99.90
52451;DHT22;38366;53.176;6.540;2022-11-11T06:03:10;10.90;99.90
52451;DHT22;38366;53.176;6.540;2022-11-11T06:05:36;11.00;99.90
52451;DHT22;38366;53.176;6.540;2022-11-11T06:08:02;10.90;99.90
52451;DHT22;38366;53.176;6.540;2022-11-11T06:10:28;11.00;99.90
52451;DHT22;38366;53.176;6.540;2022-11-11T06:12:58;11.00;99.90
52451;DHT22;38366;53.176;6.540;2022-11-11T06:15:27;11.10;99.90
52451;DHT22;38366;53.176;6.540;2022-11-11T06:17:53;11.20;99.90
52451;DHT22;38366;53.176;6.540;2022-11-11T06:20:19;11.20;99.90
52451;DHT22;38366;53.176;6.540;2022-11-11T06:22:44;11.30;99.90
52451;DHT22;38366;53.176;6.540;2022-11-11T06:25:30;11.40;99.90
52451;DHT22;38366;53.176;6.540;2022-11-11T06:28:16;11.50;99.90
52451;DHT22;38366;53.176;6.540;2022-11-11T06:30:42;11.60;99.90
52451;DHT22;38366;53.176;6.540;2022-11-11T06:33:08;11.50;99.90
52451;DHT22;38366;53.176;6.540;2022-11-11T06:35:38;11.50;99.90
52451;DHT22;38366;53.176;6.540;2022-11-11T06:38:05;11.60;99.90
52451;DHT22;38366;53.176;6.540;2022-11-11T06:40:31;11.70;99.90
52451;DHT22;38366;53.176;6.540;2022-11-11T06:42:58;11.70;99.90
52451;DHT22;38366;53.176;6.540;2022-11-11T06:45:25;11.60;99.90
52451;DHT22;38366;53.176;6.540;2022-11-11T06:47:51;11.60;99.90
52451;DHT22;38366;53.176;6.540;2022-11-11T06:50:17;11.60;99.90
52451;DHT22;38366;53.176;6.540;2022-11-11T06:52:43;11.60;99.90
52451;DHT22;38366;53.176;6.540;2022-11-11T06:55:09;11.60;99.90
52451;DHT22;38366;53.176;6.540;2022-11-11T06:57:35;11.50;99.90
52451;DHT22;38366;53.176;6.540;2022-11-11T07:00:03;11.50;99.90
52451;DHT22;38366;53.176;6.540;2022-11-11T07:02:31;11.50;99.90
52451;DHT22;38366;53.176;6.540;2022-11-11T07:05:00;11.60;99.90
52451;DHT22;38366;53.176;6.540;2022-11-11T07:07:26;11.50;99.90
52451;DHT22;38366;53.176;6.540;2022-11-11T07:09:52;11.50;99.90
52451;DHT22;38366;53.176;6.540;2022-11-11T07:12:20;11.60;99.90
52451;DHT22;38366;53.176;6.540;2022-11-11T07:14:46;11.60;99.90
52451;DHT22;38366;53.176;6.540;2022-11-11T07:17:11;11.50;99.90
52451;DHT22;38366;53.176;6.540;2022-11-11T07:19:37;11.40;99.90
52451;DHT22;38366;53.176;6.540;2022-11-11T07:22:02;11.50;99.90
52451;DHT22;38366;53.176;6.540;2022-11-11T07:24:28;11.50;99.90
52451;DHT22;38366;53.176;6.540;2022-11-11T07:26:54;11.50;99.90
52451;DHT22;38366;53.176;6.540;2022-11-11T07:29:20;11.50;99.90
52451;DHT22;38366;53.176;6.540;2022-11-11T07:31:45;11.50;99.90
52451;DHT22;38366;53.176;6.540;2022-11-11T07:34:11;11.50;99.90
52451;DHT22;38366;53.176;6.540;2022-11-11T07:36:37;11.50;99.90
52451;DHT22;38366;53.176;6.540;2022-11-11T07:39:02;11.50;99.90
52451;DHT22;38366;53.176;6.540;2022-11-11T07:41:28;11.50;99.90
52451;DHT22;38366;53.176;6.540;2022-11-11T07:43:54;11.50;99.90
52451;DHT22;38366;53.176;6.540;2022-11-11T07:46:20;11.40;99.90
52451;DHT22;38366;53.176;6.540;2022-11-11T07:48:45;11.40;99.90
52451;DHT22;38366;53.176;6.540;2022-11-11T07:51:11;11.50;99.90
52451;DHT22;38366;53.176;6.540;2022-11-11T07:53:37;11.40;99.90
52451;DHT22;38366;53.176;6.540;2022-11-11T07:56:02;11.40;99.90
52451;DHT22;38366;53.176;6.540;2022-11-11T07:58:28;11.40;99.90
52451;DHT22;38366;53.176;6.540;2022-11-11T08:00:54;11.50;99.90
52451;DHT22;38366;53.176;6.540;2022-11-11T08:03:19;11.40;99.90
52451;DHT22;38366;53.176;6.540;2022-11-11T08:05:45;11.40;99.90
52451;DHT22;38366;53.176;6.540;2022-11-11T08:08:11;11.50;99.90
52451;DHT22;38366;53.176;6.540;2022-11-11T08:10:37;11.50;99.90
52451;DHT22;38366;53.176;6.540;2022-11-11T08:13:02;11.50;99.90
52451;DHT22;38366;53.176;6.540;2022-11-11T08:15:47;11.50;99.90
52451;DHT22;38366;53.176;6.540;2022-11-11T08:18:13;11.50;99.90
52451;DHT22;38366;53.176;6.540;2022-11-11T08:20:39;11.50;99.90
52451;DHT22;38366;53.176;6.540;2022-11-11T08:23:05;11.60;99.90
52451;DHT22;38366;53.176;6.540;2022-11-11T08:25:35;11.60;99.90
52451;DHT22;38366;53.176;6.540;2022-11-11T08:28:02;11.50;99.90
52451;DHT22;38366;53.176;6.540;2022-11-11T08:30:29;11.60;99.90
52451;DHT22;38366;53.176;6.540;2022-11-11T08:32:59;11.70;99.90
52451;DHT22;38366;53.176;6.540;2022-11-11T08:35:25;11.70;99.90
52451;DHT22;38366;53.176;6.540;2022-11-11T08:37:51;11.70;99.90
52451;DHT22;38366;53.176;6.540;2022-11-11T08:40:17;11.70;99.90
52451;DHT22;38366;53.176;6.540;2022-11-11T08:42:43;11.60;99.90
52451;DHT22;38366;53.176;6.540;2022-11-11T08:45:09;11.70;99.90
52451;DHT22;38366;53.176;6.540;2022-11-11T08:47:35;11.70;99.90
52451;DHT22;38366;53.176;6.540;2022-11-11T08:50:01;11.60;99.90
52451;DHT22;38366;53.176;6.540;2022-11-11T08:52:27;11.60;99.90
52451;DHT22;38366;53.176;6.540;2022-11-11T08:54:53;11.60;99.90
52451;DHT22;38366;53.176;6.540;2022-11-11T08:57:19;11.60;99.90
52451;DHT22;38366;53.176;6.540;2022-11-11T08:59:45;11.60;99.90
52451;DHT22;38366;53.176;6.540;2022-11-11T09:02:11;11.60;99.90
52451;DHT22;38366;53.176;6.540;2022-11-11T09:04:38;11.60;99.90
52451;DHT22;38366;53.176;6.540;2022-11-11T09:07:08;11.60;99.90
52451;DHT22;38366;53.176;6.540;2022-11-11T09:09:33;11.60;99.90
52451;DHT22;38366;53.176;6.540;2022-11-11T09:12:00;11.60;99.90
52451;DHT22;38366;53.176;6.540;2022-11-11T09:14:25;11.60;99.90
52451;DHT22;38366;53.176;6.540;2022-11-11T09:16:51;11.60;99.90
52451;DHT22;38366;53.176;6.540;2022-11-11T09:19:17;11.60;99.90
52451;DHT22;38366;53.176;6.540;2022-11-11T09:21:42;11.60;99.90
52451;DHT22;38366;53.176;6.540;2022-11-11T09:24:08;11.60;99.90
52451;DHT22;38366;53.176;6.540;2022-11-11T09:26:34;11.60;99.90
52451;DHT22;38366;53.176;6.540;2022-11-11T09:29:00;11.70;99.90
52451;DHT22;38366;53.176;6.540;2022-11-11T09:31:25;11.70;99.90
52451;DHT22;38366;53.176;6.540;2022-11-11T09:33:51;11.60;99.90
52451;DHT22;38366;53.176;6.540;2022-11-11T09:36:18;11.60;99.90
52451;DHT22;38366;53.176;6.540;2022-11-11T09:38:46;11.50;99.90
52451;DHT22;38366;53.176;6.540;2022-11-11T09:41:21;11.50;99.90
52451;DHT22;38366;53.176;6.540;2022-11-11T09:47:00;11.60;99.90
52451;DHT22;38366;53.176;6.540;2022-11-11T09:52:26;11.50;99.90
52451;DHT22;38366;53.176;6.540;2022-11-11T10:00:21;11.40;99.90
52451;DHT22;38366;53.176;6.540;2022-11-11T10:03:17;11.40;99.90
52451;DHT22;38366;53.176;6.540;2022-11-11T10:05:55;11.50;99.90
52451;DHT22;38366;53.176;6.540;2022-11-11T10:08:27;11.50;99.90
52451;DHT22;38366;53.176;6.540;2022-11-11T10:10:57;11.40;99.90
52451;DHT22;38366;53.176;6.540;2022-11-11T10:13:31;11.40;99.90
52451;DHT22;38366;53.176;6.540;2022-11-11T10:16:08;11.50;99.90
52451;DHT22;38366;53.176;6.540;2022-11-11T10:21:20;11.60;99.90
52451;DHT22;38366;53.176;6.540;2022-11-11T10:23:49;11.50;99.90
52451;DHT22;38366;53.176;6.540;2022-11-11T10:26:24;11.50;99.90
52451;DHT22;38366;53.176;6.540;2022-11-11T10:28:52;11.60;99.90
52451;DHT22;38366;53.176;6.540;2022-11-11T10:31:20;11.50;99.90
52451;DHT22;38366;53.176;6.540;2022-11-11T10:33:51;11.60;99.90
52451;DHT22;38366;53.176;6.540;2022-11-11T10:36:20;11.60;99.90
52451;DHT22;38366;53.176;6.540;2022-11-11T10:38:58;11.60;99.90
52451;DHT22;38366;53.176;6.540;2022-11-11T10:41:47;11.60;99.90
52451;DHT22;38366;53.176;6.540;2022-11-11T10:44:27;11.60;99.90
52451;DHT22;38366;53.176;6.540;2022-11-11T10:47:04;11.60;99.90
52451;DHT22;38366;53.176;6.540;2022-11-11T10:49:37;11.70;99.90
52451;DHT22;38366;53.176;6.540;2022-11-11T10:52:18;11.70;99.90
52451;DHT22;38366;53.176;6.540;2022-11-11T10:55:21;11.70;99.90
52451;DHT22;38366;53.176;6.540;2022-11-11T10:57:57;11.80;99.90
52451;DHT22;38366;53.176;6.540;2022-11-11T11:00:27;11.80;99.90
52451;DHT22;38366;53.176;6.540;2022-11-11T11:02:54;11.80;99.90
52451;DHT22;38366;53.176;6.540;2022-11-11T11:05:39;11.80;99.90
52451;DHT22;38366;53.176;6.540;2022-11-11T11:08:19;11.80;99.90
52451;DHT22;38366;53.176;6.540;2022-11-11T11:10:54;11.70;99.90
52451;DHT22;38366;53.176;6.540;2022-11-11T11:13:28;11.80;99.90
52451;DHT22;38366;53.176;6.540;2022-11-11T11:16:02;11.80;99.90
52451;DHT22;38366;53.176;6.540;2022-11-11T11:18:28;11.80;99.90
52451;DHT22;38366;53.176;6.540;2022-11-11T11:20:59;11.80;99.90
52451;DHT22;38366;53.176;6.540;2022-11-11T11:23:42;11.90;99.90
52451;DHT22;38366;53.176;6.540;2022-11-11T11:26:10;12.00;99.90
52451;DHT22;38366;53.176;6.540;2022-11-11T11:28:56;11.90;99.90
52451;DHT22;38366;53.176;6.540;2022-11-11T11:31:36;12.00;99.90
52451;DHT22;38366;53.176;6.540;2022-11-11T11:34:02;11.90;99.90
52451;DHT22;38366;53.176;6.540;2022-11-11T11:36:28;11.90;99.90
52451;DHT22;38366;53.176;6.540;2022-11-11T11:38:54;11.90;99.90
52451;DHT22;38366;53.176;6.540;2022-11-11T11:41:40;11.90;99.90
52451;DHT22;38366;53.176;6.540;2022-11-11T11:46:54;11.90;99.90
52451;DHT22;38366;53.176;6.540;2022-11-11T11:52:18;12.00;99.90
52451;DHT22;38366;53.176;6.540;2022-11-11T12:00:57;11.90;99.90
52451;DHT22;38366;53.176;6.540;2022-11-11T12:05:44;12.00;99.90
52451;DHT22;38366;53.176;6.540;2022-11-11T12:21:54;12.00;99.90
52451;DHT22;38366;53.176;6.540;2022-11-11T12:38:53;11.90;99.90
52451;DHT22;38366;53.176;6.540;2022-11-11T12:41:25;11.90;99.90
52451;DHT22;38366;53.176;6.540;2022-11-11T12:49:29;11.80;99.90
52451;DHT22;38366;53.176;6.540;2022-11-11T12:52:24;11.80;99.90
52451;DHT22;38366;53.176;6.540;2022-11-11T12:58:02;11.90;99.90
52451;DHT22;38366;53.176;6.540;2022-11-11T13:00:32;11.90;99.90
52451;DHT22;38366;53.176;6.540;2022-11-11T13:03:58;11.90;99.90
52451;DHT22;38366;53.176;6.540;2022-11-11T13:14:38;11.70;99.90
52451;DHT22;38366;53.176;6.540;2022-11-11T13:17:11;11.70;99.90
52451;DHT22;38366;53.176;6.540;2022-11-11T13:19:45;11.70;99.90
52451;DHT22;38366;53.176;6.540;2022-11-11T13:22:25;11.70;99.90
52451;DHT22;38366;53.176;6.540;2022-11-11T13:24:52;11.60;99.90
52451;DHT22;38366;53.176;6.540;2022-11-11T13:31:06;11.60;99.90
52451;DHT22;38366;53.176;6.540;2022-11-11T13:33:14;11.60;99.90
52451;DHT22;38366;53.176;6.540;2022-11-11T13:35:55;11.70;99.90
52451;DHT22;38366;53.176;6.540;2022-11-11T13:38:59;11.70;99.90
52451;DHT22;38366;53.176;6.540;2022-11-11T13:41:35;11.70;99.90
52451;DHT22;38366;53.176;6.540;2022-11-11T13:44:07;11.60;99.90
52451;DHT22;38366;53.176;6.540;2022-11-11T13:46:39;11.70;99.90
52451;DHT22;38366;53.176;6.540;2022-11-11T13:49:18;11.70;99.90
52451;DHT22;38366;53.176;6.540;2022-11-11T13:51:45;11.80;99.90
52451;DHT22;38366;53.176;6.540;2022-11-11T13:54:36;11.70;99.90
52451;DHT22;38366;53.176;6.540;2022-11-11T13:57:18;11.70;99.90
52451;DHT22;38366;53.176;6.540;2022-11-11T13:59:57;11.70;99.90
52451;DHT22;38366;53.176;6.540;2022-11-11T14:02:33;11.70;99.90
52451;DHT22;38366;53.176;6.540;2022-11-11T14:07:55;11.60;99.90
52451;DHT22;38366;53.176;6.540;2022-11-11T14:15:44;11.60;99.90
52451;DHT22;38366;53.176;6.540;2022-11-11T14:20:49;11.70;99.90
52451;DHT22;38366;53.176;6.540;2022-11-11T14:23:29;11.60;99.90
52451;DHT22;38366;53.176;6.540;2022-11-11T14:33:58;11.70;99.90
52451;DHT22;38366;53.176;6.540;2022-11-11T14:36:40;11.70;99.90
52451;DHT22;38366;53.176;6.540;2022-11-11T14:39:34;11.70;99.90
52451;DHT22;38366;53.176;6.540;2022-11-11T14:42:00;11.70;99.90
52451;DHT22;38366;53.176;6.540;2022-11-11T14:49:55;11.70;99.90
52451;DHT22;38366;53.176;6.540;2022-11-11T14:57:48;11.60;99.90
52451;DHT22;38366;53.176;6.540;2022-11-11T15:02:59;11.60;99.90
52451;DHT22;38366;53.176;6.540;2022-11-11T15:18:42;11.60;99.90
52451;DHT22;38366;53.176;6.540;2022-11-11T15:21:13;11.60;99.90
52451;DHT22;38366;53.176;6.540;2022-11-11T15:29:20;11.50;99.90
52451;DHT22;38366;53.176;6.540;2022-11-11T15:31:58;11.50;99.90
52451;DHT22;38366;53.176;6.540;2022-11-11T15:37:20;11.50;99.90
52451;DHT22;38366;53.176;6.540;2022-11-11T15:39:54;11.60;99.90
52451;DHT22;38366;53.176;6.540;2022-11-11T15:42:37;11.60;99.90
52451;DHT22;38366;53.176;6.540;2022-11-11T15:45:19;11.70;99.90
52451;DHT22;38366;53.176;6.540;2022-11-11T15:47:46;11.70;99.90
52451;DHT22;38366;53.176;6.540;2022-11-11T15:52:57;11.60;99.90
52451;DHT22;38366;53.176;6.540;2022-11-11T15:55:29;11.60;99.90
52451;DHT22;38366;53.176;6.540;2022-11-11T15:58:08;11.60;99.90
52451;DHT22;38366;53.176;6.540;2022-11-11T16:00:35;11.60;99.90
52451;DHT22;38366;53.176;6.540;2022-11-11T16:03:02;11.70;99.90
52451;DHT22;38366;53.176;6.540;2022-11-11T16:05:29;11.60;99.90
52451;DHT22;38366;53.176;6.540;2022-11-11T16:07:59;11.60;99.90
52451;DHT22;38366;53.176;6.540;2022-11-11T16:10:36;11.60;99.90
52451;DHT22;38366;53.176;6.540;2022-11-11T16:15:56;11.70;99.90
52451;DHT22;38366;53.176;6.540;2022-11-11T16:18:28;11.60;99.90
52451;DHT22;38366;53.176;6.540;2022-11-11T16:20:57;11.60;99.90
52451;DHT22;38366;53.176;6.540;2022-11-11T16:23:24;11.70;99.90
52451;DHT22;38366;53.176;6.540;2022-11-11T16:25:51;11.70;99.90
52451;DHT22;38366;53.176;6.540;2022-11-11T16:28:17;11.70;99.90
52451;DHT22;38366;53.176;6.540;2022-11-11T16:30:43;11.70;99.90
52451;DHT22;38366;53.176;6.540;2022-11-11T16:33:32;11.70;99.90
52451;DHT22;38366;53.176;6.540;2022-11-11T16:36:09;11.70;99.90
52451;DHT22;38366;53.176;6.540;2022-11-11T16:38:35;11.70;99.90
52451;DHT22;38366;53.176;6.540;2022-11-11T16:41:03;11.60;99.90
52451;DHT22;38366;53.176;6.540;2022-11-11T16:43:32;11.60;99.90
52451;DHT22;38366;53.176;6.540;2022-11-11T16:51:23;11.60;99.90
52451;DHT22;38366;53.176;6.540;2022-11-11T16:54:05;11.60;99.90
52451;DHT22;38366;53.176;6.540;2022-11-11T16:56:32;11.60;99.90
52451;DHT22;38366;53.176;6.540;2022-11-11T16:59:05;11.60;99.90
52451;DHT22;38366;53.176;6.540;2022-11-11T17:01:41;11.60;99.90
52451;DHT22;38366;53.176;6.540;2022-11-11T17:04:07;11.60;99.90
52451;DHT22;38366;53.176;6.540;2022-11-11T17:06:54;11.60;99.90
52451;DHT22;38366;53.176;6.540;2022-11-11T17:09:39;11.60;99.90
52451;DHT22;38366;53.176;6.540;2022-11-11T17:12:06;11.60;99.90
52451;DHT22;38366;53.176;6.540;2022-11-11T17:14:37;11.60;99.90
52451;DHT22;38366;53.176;6.540;2022-11-11T17:17:05;11.60;99.90
52451;DHT22;38366;53.176;6.540;2022-11-11T17:19:32;11.50;99.90
52451;DHT22;38366;53.176;6.540;2022-11-11T17:22:11;11.60;99.90
52451;DHT22;38366;53.176;6.540;2022-11-11T17:24:37;11.60;99.90
52451;DHT22;38366;53.176;6.540;2022-11-11T17:27:03;11.70;99.90
52451;DHT22;38366;53.176;6.540;2022-11-11T17:29:29;11.70;99.90
52451;DHT22;38366;53.176;6.540;2022-11-11T17:31:55;11.70;99.90
52451;DHT22;38366;53.176;6.540;2022-11-11T17:34:20;11.70;99.90
52451;DHT22;38366;53.176;6.540;2022-11-11T17:36:46;11.70;99.90
52451;DHT22;38366;53.176;6.540;2022-11-11T17:39:12;11.60;99.90
52451;DHT22;38366;53.176;6.540;2022-11-11T17:41:37;11.60;99.90
52451;DHT22;38366;53.176;6.540;2022-11-11T17:44:03;11.60;99.90
52451;DHT22;38366;53.176;6.540;2022-11-11T17:46:29;11.50;99.90
52451;DHT22;38366;53.176;6.540;2022-11-11T17:48:55;11.60;99.90
52451;DHT22;38366;53.176;6.540;2022-11-11T17:51:22;11.50;99.90
52451;DHT22;38366;53.176;6.540;2022-11-11T17:53:49;11.50;99.90
52451;DHT22;38366;53.176;6.540;2022-11-11T17:56:14;11.50;99.90
52451;DHT22;38366;53.176;6.540;2022-11-11T17:58:40;11.50;99.90
52451;DHT22;38366;53.176;6.540;2022-11-11T18:01:11;11.50;99.90
52451;DHT22;38366;53.176;6.540;2022-11-11T18:03:39;11.50;99.90
52451;DHT22;38366;53.176;6.540;2022-11-11T18:06:05;11.50;99.90
52451;DHT22;38366;53.176;6.540;2022-11-11T18:08:31;11.50;99.90
52451;DHT22;38366;53.176;6.540;2022-11-11T18:11:01;11.50;99.90
52451;DHT22;38366;53.176;6.540;2022-11-11T18:13:28;11.50;99.90
52451;DHT22;38366;53.176;6.540;2022-11-11T18:15:54;11.60;99.90
52451;DHT22;38366;53.176;6.540;2022-11-11T18:18:25;11.40;99.90
52451;DHT22;38366;53.176;6.540;2022-11-11T18:20:51;11.40;99.90
52451;DHT22;38366;53.176;6.540;2022-11-11T18:23:17;11.40;99.90